This is the latest recevied weather packets stored in our database for station/object HB9ZRH-10. If no packets are shown the sender has not sent any weather packets the latest 10 day(s).
| Time | Temp. | Humidity | Pressure | Rain* | Wind** | Luminosity | Snow |
|---|---|---|---|---|---|---|---|
| 1777917642 | 25° C | 41% | 1013 hPa | - | - | - | - |
| 1777917342 | 23.33° C | 43% | 1013.2 hPa | - | - | - | - |
| 1777917042 | 22.78° C | 44% | 1013.3 hPa | - | - | - | - |
| 1777916742 | 21.11° C | 44% | 1013.3 hPa | - | - | - | - |
| 1777916442 | 21.11° C | 45% | 1013.4 hPa | - | - | - | - |
| 1777916142 | 20.56° C | 44% | 1013.3 hPa | - | - | - | - |
| 1777915842 | 22.22° C | 43% | 1013.3 hPa | - | - | - | - |
| 1777915542 | 23.33° C | 43% | 1013.3 hPa | - | - | - | - |
| 1777915242 | 18.33° C | 47% | 1013.5 hPa | - | - | - | - |
| 1777914942 | 19.44° C | 45% | 1013.4 hPa | - | - | - | - |
| 1777914642 | 21.67° C | 44% | 1013.3 hPa | - | - | - | - |
| 1777914342 | 18.33° C | 45% | 1013.5 hPa | - | - | - | - |
| 1777914042 | 18.89° C | 45% | 1013.5 hPa | - | - | - | - |
| 1777913742 | 19.44° C | 45% | 1013.4 hPa | - | - | - | - |
| 1777913442 | 20° C | 44% | 1013.4 hPa | - | - | - | - |
| 1777913142 | 18.89° C | 46% | 1013.4 hPa | - | - | - | - |
| 1777912842 | 18.33° C | 45% | 1013.4 hPa | - | - | - | - |
| 1777912542 | 17.78° C | 46% | 1013.3 hPa | - | - | - | - |
| 1777912242 | 18.33° C | 45% | 1013.5 hPa | - | - | - | - |
| 1777911942 | 20.56° C | 43% | 1013.4 hPa | - | - | - | - |
| 1777911642 | 22.22° C | 42% | 1013.4 hPa | - | - | - | - |
| 1777911342 | 19.44° C | 44% | 1013.4 hPa | - | - | - | - |
| 1777911042 | 22.78° C | 41% | 1013.3 hPa | - | - | - | - |
| 1777910742 | 22.22° C | 41% | 1013.3 hPa | - | - | - | - |
| 1777910442 | 20° C | 42% | 1013.2 hPa | - | - | - | - |
* Rain since midnight (hover to see other rain measurements)
** Current wind speed in m/s (hover to see current wind gust speed)